Capitol Logistics 7435

Operating for MZN



KBDL
Bradley International Airport
Windsor Locks, Connecticut
KAFW
Fort Worth Alliance Airport
Fort Worth, Texas

Activity Log

Date Flight Route Aircraft Duration
No Flights Yet

Route Details

Aircraft Information
Primary: Boeing 737-800BCF
Backup: Boeing 757-200SF
Route Data
Distance: 1287nm
Duration: 3h 20m
Recm'd Route: VEERS PWL BASYE Q406 BWZ J6 HVQ Q68 LITTR FAWNT WESAT2
Origin Wx: KBDL 141851Z VRB03KT 10SM FEW045 BKN100 BKN250 21/04 A2991 RMK AO2 SLP128 T02060039
Dest. Wx: KAFW 141853Z 05010G15KT 10SM SCT028 BKN250 21/13 A3002 RMK AO2 SLP160 T02110128 $
Notes: